sensor_id;sensor_type;location;lat;lon;timestamp;pressure;altitude;pressure_sealevel;temperature;humidity
56241;BME280;42155;53.096;23.226;2023-02-18T00:01:00;98354.69;;;7.47;85.32
56241;BME280;42155;53.096;23.226;2023-02-18T00:03:01;98363.72;;;7.45;85.16
56241;BME280;42155;53.096;23.226;2023-02-18T00:05:02;98353.44;;;7.42;85.08
56241;BME280;42155;53.096;23.226;2023-02-18T00:07:02;98368.72;;;7.38;85.00
56241;BME280;42155;53.096;23.226;2023-02-18T00:09:04;98332.81;;;7.18;84.28
56241;BME280;42155;53.096;23.226;2023-02-18T00:11:05;98338.34;;;7.24;84.67
56241;BME280;42155;53.096;23.226;2023-02-18T00:13:06;98341.97;;;7.23;84.09
56241;BME280;42155;53.096;23.226;2023-02-18T00:15:06;98286.75;;;6.93;83.49
56241;BME280;42155;53.096;23.226;2023-02-18T00:17:07;98349.91;;;7.13;82.83
56241;BME280;42155;53.096;23.226;2023-02-18T00:19:10;98298.88;;;6.76;82.32
56241;BME280;42155;53.096;23.226;2023-02-18T00:21:11;98341.16;;;7.03;82.68
56241;BME280;42155;53.096;23.226;2023-02-18T00:23:11;98333.41;;;6.92;82.11
56241;BME280;42155;53.096;23.226;2023-02-18T00:25:12;98349.50;;;6.89;81.97
56241;BME280;42155;53.096;23.226;2023-02-18T00:27:12;98343.13;;;6.82;81.52
56241;BME280;42155;53.096;23.226;2023-02-18T00:29:13;98298.03;;;6.46;80.98
56241;BME280;42155;53.096;23.226;2023-02-18T00:31:17;98341.06;;;6.66;80.97
56241;BME280;42155;53.096;23.226;2023-02-18T00:33:17;98338.84;;;6.61;80.74
56241;BME280;42155;53.096;23.226;2023-02-18T00:35:18;98342.00;;;6.55;80.13
56241;BME280;42155;53.096;23.226;2023-02-18T00:37:18;98344.22;;;6.50;80.02
56241;BME280;42155;53.096;23.226;2023-02-18T00:39:18;98340.75;;;6.40;79.76
56241;BME280;42155;53.096;23.226;2023-02-18T00:41:20;98349.75;;;6.37;79.77
56241;BME280;42155;53.096;23.226;2023-02-18T00:43:20;98359.75;;;6.34;80.06
56241;BME280;42155;53.096;23.226;2023-02-18T00:45:21;98359.03;;;6.32;79.20
56241;BME280;42155;53.096;23.226;2023-02-18T00:47:21;98281.69;;;5.83;79.36
56241;BME280;42155;53.096;23.226;2023-02-18T00:49:21;98350.03;;;6.25;79.03
56241;BME280;42155;53.096;23.226;2023-02-18T00:51:22;98356.38;;;6.22;78.89
56241;BME280;42155;53.096;23.226;2023-02-18T00:53:23;98327.66;;;6.09;79.01
56241;BME280;42155;53.096;23.226;2023-02-18T00:55:23;98335.53;;;6.09;78.48
56241;BME280;42155;53.096;23.226;2023-02-18T00:57:24;98347.22;;;6.17;78.90
56241;BME280;42155;53.096;23.226;2023-02-18T00:59:24;98355.81;;;6.19;78.55
56241;BME280;42155;53.096;23.226;2023-02-18T01:01:24;98357.03;;;6.15;78.55
56241;BME280;42155;53.096;23.226;2023-02-18T01:03:25;98357.34;;;6.21;78.53
56241;BME280;42155;53.096;23.226;2023-02-18T01:05:26;98363.03;;;6.17;77.91
56241;BME280;42155;53.096;23.226;2023-02-18T01:07:26;98368.97;;;6.19;78.08
56241;BME280;42155;53.096;23.226;2023-02-18T01:09:26;98365.81;;;6.15;78.81
56241;BME280;42155;53.096;23.226;2023-02-18T01:11:27;98347.28;;;5.96;78.60
56241;BME280;42155;53.096;23.226;2023-02-18T01:13:28;98357.84;;;6.05;79.18
56241;BME280;42155;53.096;23.226;2023-02-18T01:15:29;98361.03;;;5.99;79.03
56241;BME280;42155;53.096;23.226;2023-02-18T01:17:30;98374.19;;;5.99;79.60
56241;BME280;42155;53.096;23.226;2023-02-18T01:19:30;98341.97;;;5.86;79.55
56241;BME280;42155;53.096;23.226;2023-02-18T01:21:31;98354.34;;;5.95;79.67
56241;BME280;42155;53.096;23.226;2023-02-18T01:23:31;98359.63;;;5.95;79.09
56241;BME280;42155;53.096;23.226;2023-02-18T01:25:35;98316.28;;;5.69;79.17
56241;BME280;42155;53.096;23.226;2023-02-18T01:27:36;98362.97;;;5.97;79.36
56241;BME280;42155;53.096;23.226;2023-02-18T01:29:36;98358.53;;;5.98;79.18
56241;BME280;42155;53.096;23.226;2023-02-18T01:31:37;98337.63;;;5.96;78.97
56241;BME280;42155;53.096;23.226;2023-02-18T01:33:37;98345.63;;;5.95;78.80
56241;BME280;42155;53.096;23.226;2023-02-18T01:35:39;98355.50;;;6.02;78.95
56241;BME280;42155;53.096;23.226;2023-02-18T01:37:40;98335.81;;;5.97;78.63
56241;BME280;42155;53.096;23.226;2023-02-18T01:39:40;98328.03;;;5.95;78.62
56241;BME280;42155;53.096;23.226;2023-02-18T01:41:40;98344.13;;;6.02;78.26
56241;BME280;42155;53.096;23.226;2023-02-18T01:43:40;98340.53;;;6.03;78.11
56241;BME280;42155;53.096;23.226;2023-02-18T01:45:58;98350.81;;;6.06;77.94
56241;BME280;42155;53.096;23.226;2023-02-18T01:48:18;98331.50;;;6.05;77.68
56241;BME280;42155;53.096;23.226;2023-02-18T01:50:20;98328.88;;;6.05;78.14
56241;BME280;42155;53.096;23.226;2023-02-18T01:52:25;98328.63;;;6.08;78.19
56241;BME280;42155;53.096;23.226;2023-02-18T01:54:29;98297.91;;;5.88;77.81
56241;BME280;42155;53.096;23.226;2023-02-18T01:56:35;98325.00;;;6.09;77.27
56241;BME280;42155;53.096;23.226;2023-02-18T01:58:37;98304.75;;;6.00;77.65
56241;BME280;42155;53.096;23.226;2023-02-18T02:00:37;98309.75;;;6.03;77.31
56241;BME280;42155;53.096;23.226;2023-02-18T02:02:41;98319.75;;;6.09;77.15
56241;BME280;42155;53.096;23.226;2023-02-18T02:04:43;98318.78;;;6.10;76.92
56241;BME280;42155;53.096;23.226;2023-02-18T02:06:44;98303.94;;;6.09;77.21
56241;BME280;42155;53.096;23.226;2023-02-18T02:08:46;98305.34;;;6.13;76.17
56241;BME280;42155;53.096;23.226;2023-02-18T02:13:19;98293.97;;;6.03;75.61
56241;BME280;42155;53.096;23.226;2023-02-18T02:15:34;98291.19;;;6.15;75.90
56241;BME280;42155;53.096;23.226;2023-02-18T02:18:16;98301.72;;;6.15;75.21
56241;BME280;42155;53.096;23.226;2023-02-18T02:27:14;98260.97;;;5.99;74.63
56241;BME280;42155;53.096;23.226;2023-02-18T02:36:28;98290.78;;;6.09;74.64
56241;BME280;42155;53.096;23.226;2023-02-18T02:38:34;98282.34;;;6.16;74.34
56241;BME280;42155;53.096;23.226;2023-02-18T02:43:18;98285.94;;;6.15;74.09
56241;BME280;42155;53.096;23.226;2023-02-18T02:48:07;98260.81;;;6.01;73.85
56241;BME280;42155;53.096;23.226;2023-02-18T02:50:15;98297.59;;;6.22;73.69
56241;BME280;42155;53.096;23.226;2023-02-18T02:52:31;98304.53;;;6.23;73.41
56241;BME280;42155;53.096;23.226;2023-02-18T02:54:33;98304.81;;;6.20;73.51
56241;BME280;42155;53.096;23.226;2023-02-18T02:56:33;98303.13;;;6.19;73.72
56241;BME280;42155;53.096;23.226;2023-02-18T02:58:33;98292.31;;;6.12;73.82
56241;BME280;42155;53.096;23.226;2023-02-18T03:00:47;98308.41;;;6.19;74.53
56241;BME280;42155;53.096;23.226;2023-02-18T03:14:26;98304.50;;;6.13;74.20
56241;BME280;42155;53.096;23.226;2023-02-18T03:16:47;98280.63;;;5.95;74.07
56241;BME280;42155;53.096;23.226;2023-02-18T03:19:00;98321.69;;;6.07;74.23
56241;BME280;42155;53.096;23.226;2023-02-18T03:21:09;98325.31;;;6.06;74.20
56241;BME280;42155;53.096;23.226;2023-02-18T03:23:16;98269.88;;;5.77;73.86
56241;BME280;42155;53.096;23.226;2023-02-18T03:25:20;98298.59;;;5.90;73.60
56241;BME280;42155;53.096;23.226;2023-02-18T03:27:28;98297.28;;;6.05;74.01
56241;BME280;42155;53.096;23.226;2023-02-18T03:29:30;98287.59;;;5.96;73.46
56241;BME280;42155;53.096;23.226;2023-02-18T03:31:33;98309.94;;;6.11;73.54
56241;BME280;42155;53.096;23.226;2023-02-18T03:33:42;98303.13;;;6.09;73.33
56241;BME280;42155;53.096;23.226;2023-02-18T03:35:44;98296.44;;;6.05;73.73
56241;BME280;42155;53.096;23.226;2023-02-18T03:38:19;98298.97;;;6.06;73.08
56241;BME280;42155;53.096;23.226;2023-02-18T03:40:23;98306.03;;;6.06;73.77
56241;BME280;42155;53.096;23.226;2023-02-18T03:42:26;98281.75;;;5.93;73.30
56241;BME280;42155;53.096;23.226;2023-02-18T03:44:29;98246.59;;;5.73;72.86
56241;BME280;42155;53.096;23.226;2023-02-18T03:46:31;98291.59;;;6.10;72.70
56241;BME280;42155;53.096;23.226;2023-02-18T03:48:31;98297.00;;;6.08;72.87
56241;BME280;42155;53.096;23.226;2023-02-18T03:50:32;98279.25;;;6.01;72.95
56241;BME280;42155;53.096;23.226;2023-02-18T03:52:32;98297.81;;;5.99;72.69
56241;BME280;42155;53.096;23.226;2023-02-18T03:54:33;98312.81;;;6.08;72.63
56241;BME280;42155;53.096;23.226;2023-02-18T03:56:34;98283.78;;;5.89;72.51
56241;BME280;42155;53.096;23.226;2023-02-18T03:58:35;98302.28;;;6.08;72.49
56241;BME280;42155;53.096;23.226;2023-02-18T04:00:35;98284.53;;;6.01;72.36
56241;BME280;42155;53.096;23.226;2023-02-18T04:02:36;98307.97;;;6.04;72.01
56241;BME280;42155;53.096;23.226;2023-02-18T04:04:36;98308.09;;;6.02;72.69
56241;BME280;42155;53.096;23.226;2023-02-18T04:06:37;98294.16;;;5.91;72.49
56241;BME280;42155;53.096;23.226;2023-02-18T04:08:37;98310.03;;;6.00;72.60
56241;BME280;42155;53.096;23.226;2023-02-18T04:10:37;98326.09;;;5.97;72.78
56241;BME280;42155;53.096;23.226;2023-02-18T04:12:38;98308.66;;;5.96;72.65
56241;BME280;42155;53.096;23.226;2023-02-18T04:14:38;98312.38;;;5.94;72.90
56241;BME280;42155;53.096;23.226;2023-02-18T04:16:39;98307.72;;;5.86;73.20
56241;BME280;42155;53.096;23.226;2023-02-18T04:18:39;98303.31;;;5.86;73.26
56241;BME280;42155;53.096;23.226;2023-02-18T04:20:40;98312.06;;;5.87;73.41
56241;BME280;42155;53.096;23.226;2023-02-18T04:22:40;98297.50;;;5.83;73.25
56241;BME280;42155;53.096;23.226;2023-02-18T04:24:40;98301.63;;;5.76;73.63
56241;BME280;42155;53.096;23.226;2023-02-18T04:26:41;98304.66;;;5.71;73.59
56241;BME280;42155;53.096;23.226;2023-02-18T04:28:41;98304.50;;;5.73;73.18
56241;BME280;42155;53.096;23.226;2023-02-18T04:30:43;98282.50;;;5.74;72.86
56241;BME280;42155;53.096;23.226;2023-02-18T04:32:43;98292.75;;;5.77;73.10
56241;BME280;42155;53.096;23.226;2023-02-18T04:34:44;98291.09;;;5.76;72.05
56241;BME280;42155;53.096;23.226;2023-02-18T04:36:44;98294.16;;;5.81;72.22
56241;BME280;42155;53.096;23.226;2023-02-18T04:38:44;98285.28;;;5.82;72.62
56241;BME280;42155;53.096;23.226;2023-02-18T04:40:45;98292.50;;;5.80;72.08
56241;BME280;42155;53.096;23.226;2023-02-18T04:42:45;98283.34;;;5.84;71.68
56241;BME280;42155;53.096;23.226;2023-02-18T04:44:45;98263.91;;;5.66;71.67
56241;BME280;42155;53.096;23.226;2023-02-18T04:46:46;98278.09;;;5.84;71.92
56241;BME280;42155;53.096;23.226;2023-02-18T04:48:46;98289.72;;;5.91;71.85
56241;BME280;42155;53.096;23.226;2023-02-18T04:50:46;98281.16;;;5.89;71.09
56241;BME280;42155;53.096;23.226;2023-02-18T04:52:47;98288.38;;;5.87;71.46
56241;BME280;42155;53.096;23.226;2023-02-18T04:54:48;98284.88;;;5.86;70.98
56241;BME280;42155;53.096;23.226;2023-02-18T04:56:48;98284.75;;;5.88;71.01
56241;BME280;42155;53.096;23.226;2023-02-18T04:58:48;98298.91;;;5.87;70.39
56241;BME280;42155;53.096;23.226;2023-02-18T05:00:49;98290.03;;;5.88;70.22
56241;BME280;42155;53.096;23.226;2023-02-18T05:02:49;98281.84;;;5.91;70.21
56241;BME280;42155;53.096;23.226;2023-02-18T05:04:49;98255.81;;;5.88;69.97
56241;BME280;42155;53.096;23.226;2023-02-18T05:06:50;98294.78;;;5.94;69.77
56241;BME280;42155;53.096;23.226;2023-02-18T05:08:50;98283.16;;;5.97;69.31
56241;BME280;42155;53.096;23.226;2023-02-18T05:10:50;98270.94;;;5.96;69.07
56241;BME280;42155;53.096;23.226;2023-02-18T05:12:51;98218.19;;;5.67;68.85
56241;BME280;42155;53.096;23.226;2023-02-18T05:14:51;98287.59;;;5.96;68.70
56241;BME280;42155;53.096;23.226;2023-02-18T05:16:51;98266.38;;;5.98;69.00
56241;BME280;42155;53.096;23.226;2023-02-18T05:18:52;98275.78;;;6.00;68.68
56241;BME280;42155;53.096;23.226;2023-02-18T05:20:52;98279.25;;;6.01;68.39
56241;BME280;42155;53.096;23.226;2023-02-18T05:22:52;98285.38;;;6.01;68.50
56241;BME280;42155;53.096;23.226;2023-02-18T05:24:53;98271.25;;;6.02;68.63
56241;BME280;42155;53.096;23.226;2023-02-18T05:26:53;98272.63;;;5.97;68.42
56241;BME280;42155;53.096;23.226;2023-02-18T05:28:54;98278.72;;;5.97;67.82
56241;BME280;42155;53.096;23.226;2023-02-18T05:30:54;98265.63;;;5.86;68.20
56241;BME280;42155;53.096;23.226;2023-02-18T05:32:55;98287.69;;;5.95;67.62
56241;BME280;42155;53.096;23.226;2023-02-18T05:34:55;98283.69;;;6.00;67.85
56241;BME280;42155;53.096;23.226;2023-02-18T05:36:55;98260.34;;;5.86;67.59
56241;BME280;42155;53.096;23.226;2023-02-18T05:38:56;98280.94;;;5.92;67.17
56241;BME280;42155;53.096;23.226;2023-02-18T05:40:56;98288.69;;;6.03;67.07
56241;BME280;42155;53.096;23.226;2023-02-18T05:42:56;98293.97;;;6.03;67.25
56241;BME280;42155;53.096;23.226;2023-02-18T05:44:57;98212.09;;;5.56;66.69
56241;BME280;42155;53.096;23.226;2023-02-18T05:47:00;98305.47;;;6.02;66.59
56241;BME280;42155;53.096;23.226;2023-02-18T05:49:00;98300.31;;;6.01;66.38
56241;BME280;42155;53.096;23.226;2023-02-18T05:51:01;98314.59;;;5.98;66.55
56241;BME280;42155;53.096;23.226;2023-02-18T05:53:01;98301.44;;;5.98;66.34
56241;BME280;42155;53.096;23.226;2023-02-18T05:55:02;98314.75;;;5.97;66.74
56241;BME280;42155;53.096;23.226;2023-02-18T05:57:03;98267.81;;;5.71;66.68
56241;BME280;42155;53.096;23.226;2023-02-18T05:59:03;98302.66;;;5.94;66.36
56241;BME280;42155;53.096;23.226;2023-02-18T06:01:04;98290.28;;;5.85;66.33
56241;BME280;42155;53.096;23.226;2023-02-18T06:03:04;98302.53;;;5.96;66.26
56241;BME280;42155;53.096;23.226;2023-02-18T06:05:05;98315.28;;;6.00;65.87
56241;BME280;42155;53.096;23.226;2023-02-18T06:07:05;98320.56;;;6.00;66.24
56241;BME280;42155;53.096;23.226;2023-02-18T06:09:06;98322.50;;;5.98;65.74
56241;BME280;42155;53.096;23.226;2023-02-18T06:11:07;98310.25;;;5.87;66.11
56241;BME280;42155;53.096;23.226;2023-02-18T06:13:07;98325.00;;;6.00;65.92
56241;BME280;42155;53.096;23.226;2023-02-18T06:15:07;98318.47;;;5.94;65.84
56241;BME280;42155;53.096;23.226;2023-02-18T06:17:09;98325.56;;;6.03;66.03
56241;BME280;42155;53.096;23.226;2023-02-18T06:19:10;98335.41;;;6.01;65.89
56241;BME280;42155;53.096;23.226;2023-02-18T06:21:10;98334.28;;;6.04;65.97
56241;BME280;42155;53.096;23.226;2023-02-18T06:23:11;98332.47;;;6.04;65.80
56241;BME280;42155;53.096;23.226;2023-02-18T06:25:11;98345.94;;;6.01;65.62
56241;BME280;42155;53.096;23.226;2023-02-18T06:27:11;98340.78;;;6.00;65.54
56241;BME280;42155;53.096;23.226;2023-02-18T06:29:12;98349.09;;;5.95;65.78
56241;BME280;42155;53.096;23.226;2023-02-18T06:31:12;98348.69;;;6.00;65.57
56241;BME280;42155;53.096;23.226;2023-02-18T06:33:12;98358.41;;;5.99;65.21
56241;BME280;42155;53.096;23.226;2023-02-18T06:35:13;98336.75;;;5.96;65.47
56241;BME280;42155;53.096;23.226;2023-02-18T06:37:13;98347.56;;;5.93;65.32
56241;BME280;42155;53.096;23.226;2023-02-18T06:39:13;98357.81;;;5.96;65.42
56241;BME280;42155;53.096;23.226;2023-02-18T06:41:14;98348.53;;;5.92;64.88
56241;BME280;42155;53.096;23.226;2023-02-18T06:43:15;98359.38;;;5.98;65.23
56241;BME280;42155;53.096;23.226;2023-02-18T06:45:15;98362.13;;;5.97;65.25
56241;BME280;42155;53.096;23.226;2023-02-18T06:47:16;98355.75;;;5.99;65.42
56241;BME280;42155;53.096;23.226;2023-02-18T06:49:16;98356.03;;;5.96;65.24
56241;BME280;42155;53.096;23.226;2023-02-18T06:51:16;98355.56;;;5.91;65.13
56241;BME280;42155;53.096;23.226;2023-02-18T06:53:17;98370.16;;;5.95;64.97
56241;BME280;42155;53.096;23.226;2023-02-18T06:55:17;98342.50;;;5.80;65.36
56241;BME280;42155;53.096;23.226;2023-02-18T06:57:17;98345.41;;;5.86;64.80
56241;BME280;42155;53.096;23.226;2023-02-18T06:59:18;98364.06;;;5.95;64.77
56241;BME280;42155;53.096;23.226;2023-02-18T07:01:18;98365.25;;;5.91;65.40
56241;BME280;42155;53.096;23.226;2023-02-18T07:03:18;98371.28;;;5.93;65.31
56241;BME280;42155;53.096;23.226;2023-02-18T07:05:19;98353.19;;;5.78;65.00
56241;BME280;42155;53.096;23.226;2023-02-18T07:07:19;98356.63;;;5.79;64.63
56241;BME280;42155;53.096;23.226;2023-02-18T07:09:20;98380.38;;;5.88;64.60
56241;BME280;42155;53.096;23.226;2023-02-18T07:11:20;98372.88;;;5.84;64.45
56241;BME280;42155;53.096;23.226;2023-02-18T07:13:20;98370.81;;;5.87;65.13
56241;BME280;42155;53.096;23.226;2023-02-18T07:15:21;98377.72;;;5.88;65.23
56241;BME280;42155;53.096;23.226;2023-02-18T07:17:21;98395.44;;;5.86;64.45
56241;BME280;42155;53.096;23.226;2023-02-18T07:19:21;98322.38;;;5.39;64.91
56241;BME280;42155;53.096;23.226;2023-02-18T07:21:22;98384.22;;;5.84;65.11
56241;BME280;42155;53.096;23.226;2023-02-18T07:23:22;98394.34;;;5.89;65.06
56241;BME280;42155;53.096;23.226;2023-02-18T07:25:23;98383.41;;;5.84;64.76
56241;BME280;42155;53.096;23.226;2023-02-18T07:27:23;98381.19;;;5.89;64.35
56241;BME280;42155;53.096;23.226;2023-02-18T07:29:23;98388.03;;;5.92;64.77
56241;BME280;42155;53.096;23.226;2023-02-18T07:31:24;98388.72;;;5.94;64.22
56241;BME280;42155;53.096;23.226;2023-02-18T07:33:24;98385.84;;;5.76;64.59
56241;BME280;42155;53.096;23.226;2023-02-18T07:35:25;98398.66;;;5.90;64.61
56241;BME280;42155;53.096;23.226;2023-02-18T07:37:25;98397.69;;;5.91;64.62
56241;BME280;42155;53.096;23.226;2023-02-18T07:39:25;98393.66;;;5.87;63.84
56241;BME280;42155;53.096;23.226;2023-02-18T07:41:26;98395.59;;;5.85;64.10
56241;BME280;42155;53.096;23.226;2023-02-18T07:43:26;98361.69;;;5.61;64.54
56241;BME280;42155;53.096;23.226;2023-02-18T07:45:27;98402.78;;;5.83;64.06
56241;BME280;42155;53.096;23.226;2023-02-18T07:47:27;98416.84;;;5.93;63.85
56241;BME280;42155;53.096;23.226;2023-02-18T07:49:28;98409.84;;;5.82;64.13
56241;BME280;42155;53.096;23.226;2023-02-18T07:51:29;98407.53;;;5.89;64.11
56241;BME280;42155;53.096;23.226;2023-02-18T07:53:29;98430.16;;;5.92;64.71
56241;BME280;42155;53.096;23.226;2023-02-18T07:55:30;98420.53;;;5.91;64.62
56241;BME280;42155;53.096;23.226;2023-02-18T07:57:30;98438.91;;;5.92;64.34
56241;BME280;42155;53.096;23.226;2023-02-18T07:59:31;98416.03;;;5.93;64.28
56241;BME280;42155;53.096;23.226;2023-02-18T08:01:31;98399.00;;;5.76;64.08
56241;BME280;42155;53.096;23.226;2023-02-18T08:03:32;98419.72;;;5.90;64.43
56241;BME280;42155;53.096;23.226;2023-02-18T08:05:32;98369.72;;;5.59;63.97
56241;BME280;42155;53.096;23.226;2023-02-18T08:07:33;98437.44;;;5.88;64.32
56241;BME280;42155;53.096;23.226;2023-02-18T08:09:33;98428.59;;;5.89;63.97
56241;BME280;42155;53.096;23.226;2023-02-18T08:11:34;98423.09;;;5.92;64.56
56241;BME280;42155;53.096;23.226;2023-02-18T08:13:34;98450.56;;;5.99;64.60
56241;BME280;42155;53.096;23.226;2023-02-18T08:15:35;98432.56;;;6.04;63.92
56241;BME280;42155;53.096;23.226;2023-02-18T08:17:36;98423.66;;;5.96;64.13
56241;BME280;42155;53.096;23.226;2023-02-18T08:19:36;98444.75;;;6.05;63.81
56241;BME280;42155;53.096;23.226;2023-02-18T08:21:36;98446.16;;;6.09;63.61
56241;BME280;42155;53.096;23.226;2023-02-18T08:23:37;98428.69;;;6.08;63.65
56241;BME280;42155;53.096;23.226;2023-02-18T08:25:37;98426.88;;;6.09;63.98
56241;BME280;42155;53.096;23.226;2023-02-18T08:27:38;98440.88;;;6.09;63.72
56241;BME280;42155;53.096;23.226;2023-02-18T08:29:38;98432.03;;;6.10;63.39
56241;BME280;42155;53.096;23.226;2023-02-18T08:31:38;98452.81;;;6.13;63.85
56241;BME280;42155;53.096;23.226;2023-02-18T08:33:39;98438.69;;;6.15;63.32
56241;BME280;42155;53.096;23.226;2023-02-18T08:35:39;98416.31;;;5.99;63.15
56241;BME280;42155;53.096;23.226;2023-02-18T08:37:40;98436.44;;;6.10;63.14
56241;BME280;42155;53.096;23.226;2023-02-18T08:39:40;98438.97;;;6.11;63.33
56241;BME280;42155;53.096;23.226;2023-02-18T08:41:41;98441.88;;;6.08;63.35
56241;BME280;42155;53.096;23.226;2023-02-18T08:43:41;98426.63;;;5.91;63.56
56241;BME280;42155;53.096;23.226;2023-02-18T08:45:42;98441.47;;;6.13;63.02
56241;BME280;42155;53.096;23.226;2023-02-18T08:47:43;98456.19;;;6.16;63.26
56241;BME280;42155;53.096;23.226;2023-02-18T08:49:44;98451.84;;;6.15;63.45
56241;BME280;42155;53.096;23.226;2023-02-18T08:51:44;98452.81;;;6.13;63.36
56241;BME280;42155;53.096;23.226;2023-02-18T08:53:45;98459.06;;;6.12;62.71
56241;BME280;42155;53.096;23.226;2023-02-18T08:55:45;98453.13;;;6.10;63.15
56241;BME280;42155;53.096;23.226;2023-02-18T08:57:49;98463.50;;;6.12;63.43
56241;BME280;42155;53.096;23.226;2023-02-18T08:59:49;98455.75;;;6.10;63.36
56241;BME280;42155;53.096;23.226;2023-02-18T09:01:49;98463.66;;;6.10;63.29
56241;BME280;42155;53.096;23.226;2023-02-18T09:03:50;98430.59;;;5.97;63.41
56241;BME280;42155;53.096;23.226;2023-02-18T09:05:50;98464.72;;;6.08;63.54
56241;BME280;42155;53.096;23.226;2023-02-18T09:07:50;98470.84;;;6.08;63.04
56241;BME280;42155;53.096;23.226;2023-02-18T09:09:51;98458.38;;;6.10;62.98
56241;BME280;42155;53.096;23.226;2023-02-18T09:11:51;98477.75;;;6.09;63.12
56241;BME280;42155;53.096;23.226;2023-02-18T09:13:51;98421.47;;;5.80;62.91
56241;BME280;42155;53.096;23.226;2023-02-18T09:16:00;98467.22;;;6.09;62.79
56241;BME280;42155;53.096;23.226;2023-02-18T09:18:01;98463.66;;;6.10;63.05
56241;BME280;42155;53.096;23.226;2023-02-18T09:20:02;98475.00;;;6.11;63.14
56241;BME280;42155;53.096;23.226;2023-02-18T09:22:03;98469.03;;;6.09;62.65
56241;BME280;42155;53.096;23.226;2023-02-18T09:24:03;98394.63;;;5.55;63.24
56241;BME280;42155;53.096;23.226;2023-02-18T09:26:06;98474.44;;;6.07;62.86
56241;BME280;42155;53.096;23.226;2023-02-18T09:28:06;98483.47;;;6.15;63.32
56241;BME280;42155;53.096;23.226;2023-02-18T09:30:07;98494.56;;;6.18;62.57
56241;BME280;42155;53.096;23.226;2023-02-18T09:32:08;98484.03;;;6.18;62.63
56241;BME280;42155;53.096;23.226;2023-02-18T09:34:08;98456.34;;;5.93;63.05
56241;BME280;42155;53.096;23.226;2023-02-18T09:36:09;98482.38;;;6.17;63.15
56241;BME280;42155;53.096;23.226;2023-02-18T09:38:10;98479.50;;;6.20;62.80
56241;BME280;42155;53.096;23.226;2023-02-18T09:40:24;98492.66;;;6.20;62.24
56241;BME280;42155;53.096;23.226;2023-02-18T09:42:31;98492.28;;;6.25;62.68
56241;BME280;42155;53.096;23.226;2023-02-18T09:44:50;98489.50;;;6.26;62.74
56241;BME280;42155;53.096;23.226;2023-02-18T09:49:03;98495.06;;;6.33;62.34
56241;BME280;42155;53.096;23.226;2023-02-18T09:51:06;98508.13;;;6.34;62.86
56241;BME280;42155;53.096;23.226;2023-02-18T09:53:10;98508.69;;;6.38;63.07
56241;BME280;42155;53.096;23.226;2023-02-18T09:57:41;98507.03;;;6.47;61.84
56241;BME280;42155;53.096;23.226;2023-02-18T09:59:43;98508.44;;;6.51;62.54
56241;BME280;42155;53.096;23.226;2023-02-18T10:01:45;98498.72;;;6.51;62.49
56241;BME280;42155;53.096;23.226;2023-02-18T10:03:46;98517.91;;;6.53;62.11
56241;BME280;42155;53.096;23.226;2023-02-18T10:05:59;98497.91;;;6.60;61.59
56241;BME280;42155;53.096;23.226;2023-02-18T10:08:05;98505.16;;;6.58;61.74
56241;BME280;42155;53.096;23.226;2023-02-18T10:10:21;98522.78;;;6.68;62.30
56241;BME280;42155;53.096;23.226;2023-02-18T10:12:29;98512.69;;;6.73;62.10
56241;BME280;42155;53.096;23.226;2023-02-18T10:14:31;98498.81;;;6.71;62.16
56241;BME280;42155;53.096;23.226;2023-02-18T10:16:32;98526.13;;;6.70;61.77
56241;BME280;42155;53.096;23.226;2023-02-18T10:18:36;98489.91;;;6.62;61.73
56241;BME280;42155;53.096;23.226;2023-02-18T10:20:39;98503.81;;;6.83;61.39
56241;BME280;42155;53.096;23.226;2023-02-18T10:22:39;98507.28;;;6.84;61.72
56241;BME280;42155;53.096;23.226;2023-02-18T10:24:43;98493.00;;;6.86;61.65
56241;BME280;42155;53.096;23.226;2023-02-18T10:26:45;98521.47;;;7.02;60.93
56241;BME280;42155;53.096;23.226;2023-02-18T10:28:47;98499.13;;;7.06;60.94
56241;BME280;42155;53.096;23.226;2023-02-18T10:30:56;98512.75;;;7.11;60.82
56241;BME280;42155;53.096;23.226;2023-02-18T10:49:08;98540.16;;;7.69;59.61
56241;BME280;42155;53.096;23.226;2023-02-18T10:51:22;98522.22;;;7.72;59.39
56241;BME280;42155;53.096;23.226;2023-02-18T10:53:36;98532.06;;;7.80;58.93
56241;BME280;42155;53.096;23.226;2023-02-18T10:55:47;98540.38;;;7.85;58.82
56241;BME280;42155;53.096;23.226;2023-02-18T10:57:52;98515.81;;;7.75;58.50
56241;BME280;42155;53.096;23.226;2023-02-18T11:02:17;98452.09;;;7.40;58.87
56241;BME280;42155;53.096;23.226;2023-02-18T11:04:19;98536.38;;;7.90;58.87
56241;BME280;42155;53.096;23.226;2023-02-18T11:06:26;98536.63;;;7.97;58.82
56241;BME280;42155;53.096;23.226;2023-02-18T11:08:41;98545.81;;;7.93;58.27
56241;BME280;42155;53.096;23.226;2023-02-18T11:10:44;98486.09;;;7.63;58.51
56241;BME280;42155;53.096;23.226;2023-02-18T11:12:48;98546.94;;;7.90;57.91
56241;BME280;42155;53.096;23.226;2023-02-18T11:17:13;98553.19;;;7.89;58.14
56241;BME280;42155;53.096;23.226;2023-02-18T11:19:32;98536.91;;;7.84;58.56
56241;BME280;42155;53.096;23.226;2023-02-18T11:21:37;98523.47;;;7.78;58.77
56241;BME280;42155;53.096;23.226;2023-02-18T11:23:56;98538.88;;;7.92;58.35
56241;BME280;42155;53.096;23.226;2023-02-18T11:26:00;98529.97;;;7.93;58.36
56241;BME280;42155;53.096;23.226;2023-02-18T11:28:04;98530.78;;;7.94;58.25
56241;BME280;42155;53.096;23.226;2023-02-18T11:30:24;98550.81;;;7.96;58.11
56241;BME280;42155;53.096;23.226;2023-02-18T11:32:27;98552.47;;;7.97;58.06
56241;BME280;42155;53.096;23.226;2023-02-18T11:34:30;98547.88;;;7.99;58.24
56241;BME280;42155;53.096;23.226;2023-02-18T11:36:33;98545.81;;;7.93;58.24
56241;BME280;42155;53.096;23.226;2023-02-18T11:38:36;98542.75;;;7.88;57.97
56241;BME280;42155;53.096;23.226;2023-02-18T11:40:37;98547.47;;;7.84;58.37
56241;BME280;42155;53.096;23.226;2023-02-18T11:42:38;98536.34;;;7.81;58.30
56241;BME280;42155;53.096;23.226;2023-02-18T11:44:42;98537.09;;;7.73;57.75
56241;BME280;42155;53.096;23.226;2023-02-18T11:49:21;98555.56;;;7.73;57.88